Latest Weather Observations for Clare

IDS60801

Issued at 10:31 pm CST Wednesday 25 May 2016 (issued every 30 minutes, with the page automatically refreshed every 10 minutes)

About weather observations | Map of weather stations | Latest weather observations for SA | Other Formats
Station Details ID: 021131 Name: CLARE HIGH SCHOOL Lat: -33.82 Lon: 138.59 Height: 395.0 m
Data from the previous 72 hours. | See also: Recent months at Clare
Date/Time
CST
Temp
°C
App
Temp
°C
Dew
Point
Rel
Hum
%
Delta-T
°C
Wind Press
QNH
hPa
Press
MSL
hPa
Rain
since 9 am
mm
Dir
 
Spd
km/h
Gust
km/h
Spd
kts
Gust
kts
25/10:30pm 11.9 9.2 11.7 99 0.1 NW 17 28 9 15 1007.5 - 7.4
25/10:00pm 11.9 10.0 11.7 99 0.1 NW 13 22 7 12 1007.8 - 7.2
25/09:30pm 12.0 9.3 11.8 99 0.1 NW 17 33 9 18 1008.1 - 7.2
25/09:00pm 12.1 9.8 11.9 99 0.1 NW 15 24 8 13 1008.2 1008.1 7.2
25/08:30pm 11.9 8.8 11.7 99 0.1 NNW 19 24 10 13 1008.3 - 6.4
25/08:00pm 11.9 8.3 11.7 99 0.1 NW 22 33 12 18 1008.3 - 6.4
25/07:30pm 12.7 9.7 12.1 96 0.3 NW 19 30 10 16 1008.6 - 6.0
25/07:00pm 12.2 11.5 12.0 99 0.1 WNW 7 11 4 6 1008.0 - 6.0
25/06:30pm 11.9 12.1 11.7 99 0.1 NW 2 6 1 3 1007.8 - 6.0
25/06:00pm 11.9 10.3 11.7 99 0.1 N 11 17 6 9 1007.9 1007.8 6.0
25/05:30pm 11.7 9.7 11.5 99 0.1 NNW 13 22 7 12 1007.9 - 5.8
25/05:00pm 11.6 8.4 11.4 99 0.1 NNW 19 32 10 17 1008.5 - 5.6
25/04:30pm 11.7 8.6 11.5 99 0.1 NNW 19 30 10 16 1008.6 - 4.8
25/04:00pm 11.9 8.8 11.6 98 0.2 NNW 19 32 10 17 1009.0 - 3.6
25/03:30pm 11.9 9.0 11.1 95 0.4 NNW 17 26 9 14 1009.0 - 3.2
25/03:00pm 12.5 8.6 10.9 90 0.9 NNW 22 37 12 20 1008.9 1008.8 3.2
25/02:30pm 13.3 11.0 11.7 90 0.9 N 15 24 8 13 1008.5 - 3.2
25/02:00pm 13.1 10.8 11.7 91 0.8 N 15 20 8 11 1008.8 - 3.2
25/01:30pm 13.0 11.4 11.7 92 0.7 NNW 11 20 6 11 1008.9 - 3.2
25/01:00pm 12.4 9.7 11.6 95 0.4 N 17 26 9 14 1009.4 - 3.2
25/12:30pm 12.1 9.8 11.6 97 0.3 N 15 26 8 14 1010.4 - 3.2
25/12:00pm 11.6 8.8 11.3 98 0.2 N 17 24 9 13 1010.9 1010.8 3.2
25/11:30am 10.4 7.7 10.2 99 0.1 N 15 24 8 13 1011.9 - 3.2
25/11:00am 9.6 6.7 9.5 99 0.1 N 15 26 8 14 1012.7 - 3.2
25/10:30am 9.4 6.3 8.9 97 0.3 N 15 22 8 12 1012.9 - 3.0
25/10:00am 9.8 5.8 8.4 91 0.7 N 19 32 10 17 1014.0 - 0.8
25/09:30am 9.6 7.2 8.7 94 0.4 N 11 24 6 13 1014.1 - 0.6
25/09:00am 9.4 6.9 8.0 91 0.7 N 11 17 6 9 1014.0 1014.0 5.0
25/08:30am 9.6 6.2 7.7 88 0.9 N 15 22 8 12 1014.1 - 4.6
25/08:00am 9.3 7.0 7.6 89 0.8 N 9 15 5 8 1014.2 - 4.6
25/07:30am 9.1 6.1 6.2 82 1.4 N 11 19 6 10 1014.4 - 4.2
25/07:00am 10.1 7.3 5.3 72 2.2 N 9 17 5 9 1014.4 - 4.0
25/06:30am 11.0 7.6 4.2 63 3.1 NNW 11 19 6 10 1014.5 - 4.0
25/06:00am 11.1 7.5 3.2 58 3.5 NNW 11 17 6 9 1014.8 1014.8 4.0
25/05:30am 11.0 7.9 3.5 60 3.4 WNW 9 13 5 7 1014.8 - 4.0
25/05:00am 10.2 7.4 5.0 70 2.4 WSW 9 13 5 7 1014.7 - 4.0
25/04:30am 10.5 7.6 4.6 67 2.7 SW 9 19 5 10 1014.8 - 3.6
25/04:00am 10.1 6.4 4.5 68 2.6 NNE 13 22 7 12 1012.9 - 3.6
25/03:30am 12.4 7.4 1.4 47 4.8 N 17 24 9 13 1013.2 - 2.6
25/03:00am 11.8 7.4 2.5 53 4.1 NNE 15 28 8 15 1013.4 1013.3 2.6
25/02:30am 9.5 7.4 5.7 77 1.8 N 6 17 3 9 1014.7 - 2.2
25/02:00am 13.3 9.2 -0.3 39 5.7 N 11 20 6 11 1014.8 - 0.0
25/01:30am 12.9 8.8 0.0 41 5.5 N 11 20 6 11 1014.2 - 0.0
25/01:00am 13.6 8.2 -1.6 35 6.3 N 17 32 9 17 1014.5 - 0.0
25/12:30am 13.4 8.0 -1.0 37 6.0 N 17 28 9 15 1014.9 - 0.0
25/12:00am 13.1 7.8 -0.5 39 5.7 N 17 30 9 16 1015.4 1015.3 0.0
 
Date/Time
CST
Temp
°C
App
Temp
°C
Dew
Point
Rel
Hum
%
Delta-T
°C
Wind Press
QNH
hPa
Press
MSL
hPa
Rain
since 9 am
mm
Dir
 
Spd
km/h
Gust
km/h
Spd
kts
Gust
kts
24/11:30pm 12.6 7.0 -0.3 41 5.4 N 19 30 10 16 1015.5 - 0.0
24/11:00pm 11.9 6.7 0.1 44 5.0 N 17 28 9 15 1016.3 - 0.0
24/10:30pm 10.8 7.2 0.8 50 4.2 N 9 19 5 10 1016.8 - 0.0
24/10:00pm 11.4 7.4 0.5 47 4.6 N 11 20 6 11 1017.0 - 0.0
24/09:30pm 11.7 7.7 0.5 46 4.7 NNE 11 19 6 10 1017.5 - 0.0
24/09:00pm 12.4 8.0 0.5 44 5.1 N 13 20 7 11 1017.6 1017.6 0.0
24/08:30pm 12.1 8.4 0.2 44 5.0 N 9 19 5 10 1017.8 - 0.0
24/08:00pm 11.5 7.9 -2.0 39 5.4 NNE 7 13 4 7 1018.1 - 0.0
24/07:30pm 12.2 8.6 -4.0 32 6.2 N 6 11 3 6 1018.1 - 0.0
24/07:00pm 10.5 7.0 -1.5 43 4.8 ENE 7 9 4 5 1018.2 - 0.0
24/06:30pm 12.6 9.9 -2.4 35 6.0 N 2 7 1 4 1018.0 - 0.0
24/06:00pm 13.6 10.7 -4.1 29 6.9 NNW 2 9 1 5 1018.0 1017.9 0.0
24/05:30pm 14.3 11.5 -3.0 30 7.0 N 2 7 1 4 1017.7 - 0.0
24/05:00pm 16.3 11.4 -3.2 26 8.0 NNW 13 20 7 11 1017.6 - 0.0
24/04:30pm 17.5 12.3 -2.7 25 8.4 NNW 15 20 8 11 1018.0 - 0.0
24/04:00pm 18.3 12.2 -3.8 22 9.1 NNW 19 30 10 16 1018.0 - 0.0
24/03:30pm 18.8 12.5 -4.0 21 9.4 NNW 20 32 11 17 1018.3 - 0.0
24/03:00pm 18.9 12.7 -3.3 22 9.3 N 20 35 11 19 1018.4 1018.4 0.0
24/02:30pm 18.7 14.3 2.9 35 7.5 N 15 28 8 15 1018.7 - 0.0
24/02:00pm 18.3 13.4 2.2 34 7.5 N 17 26 9 14 1019.1 - 0.0
24/01:30pm 18.1 13.2 2.0 34 7.4 N 17 26 9 14 1019.6 - 0.0
24/01:00pm 17.7 13.8 3.2 38 6.9 N 13 19 7 10 1020.1 - 0.0
24/12:30pm 17.5 13.3 3.8 40 6.5 N 15 24 8 13 1020.9 - 0.0
24/12:00pm 17.0 13.3 4.7 44 5.9 N 13 20 7 11 1021.3 1021.3 0.0
24/11:30am 16.5 13.3 6.9 53 4.8 NNE 13 20 7 11 1022.3 - 0.0
24/11:00am 15.7 12.8 6.7 55 4.5 N 11 19 6 10 1023.3 - 0.0
24/10:30am 15.4 13.7 8.4 63 3.6 N 7 13 4 7 1023.6 - 0.0
24/10:00am 13.9 13.8 9.3 74 2.4 CALM 0 0 0 0 1023.7 - 0.0
24/09:30am 10.8 10.6 8.9 88 1.0 CALM 0 0 0 0 1023.9 - 0.0
24/09:00am 7.8 7.2 7.5 98 0.1 CALM 0 0 0 0 1023.8 1023.8 0.0
24/08:30am 6.1 5.2 6.0 99 0.0 CALM 0 0 0 0 1023.8 - 0.0
24/08:00am 5.2 4.1 5.1 99 0.0 CALM 0 0 0 0 1023.4 - 0.0
24/07:30am 4.2 2.9 4.1 99 0.0 CALM 0 0 0 0 1023.4 - 0.0
24/07:00am 4.1 2.8 4.0 99 0.0 CALM 0 0 0 0 1023.1 - 0.0
24/06:30am 4.0 2.7 3.9 99 0.0 CALM 0 0 0 0 1022.8 - 0.0
24/06:00am 4.0 2.7 3.9 99 0.0 CALM 0 0 0 0 1022.4 1022.5 0.0
24/05:30am 4.0 2.7 3.9 99 0.0 CALM 0 0 0 0 1022.5 - 0.0
24/05:00am 3.4 2.0 3.3 99 0.0 CALM 0 0 0 0 1022.3 - 0.0
24/04:30am 3.4 2.0 3.3 99 0.0 CALM 0 0 0 0 1022.8 - 0.0
24/04:00am 3.4 2.0 3.3 99 0.0 CALM 0 0 0 0 1022.8 - 0.0
24/03:30am 3.6 2.2 3.5 99 0.0 CALM 0 0 0 0 1023.1 - 0.0
24/03:00am 3.9 2.5 3.8 99 0.0 CALM 0 0 0 0 1023.3 1023.3 0.0
24/02:30am 4.3 3.0 4.2 99 0.0 CALM 0 0 0 0 1023.4 - 0.0
24/02:00am 4.3 3.0 4.2 99 0.0 CALM 0 0 0 0 1023.3 - 0.0
24/01:30am 4.4 3.1 4.3 99 0.0 CALM 0 0 0 0 1023.5 - 0.0
24/01:00am 4.8 3.6 4.7 99 0.0 CALM 0 0 0 0 1023.6 - 0.0
24/12:30am 4.7 3.5 4.4 98 0.1 CALM 0 0 0 0 1023.9 - 0.0
24/12:00am 5.2 4.1 5.1 99 0.0 CALM 0 0 0 0 1024.1 1024.1 0.0
 
Date/Time
CST
Temp
°C
App
Temp
°C
Dew
Point
Rel
Hum
%
Delta-T
°C
Wind Press
QNH
hPa
Press
MSL
hPa
Rain
since 9 am
mm
Dir
 
Spd
km/h
Gust
km/h
Spd
kts
Gust
kts
23/11:30pm 5.2 4.0 4.8 97 0.2 CALM 0 0 0 0 1024.6 - 0.0
23/11:00pm 5.5 4.4 4.9 96 0.3 CALM 0 0 0 0 1024.6 - 0.0
23/10:30pm 5.8 4.7 5.1 95 0.3 CALM 0 0 0 0 1024.8 - 0.0
23/10:00pm 7.2 5.7 6.6 96 0.3 ESE 4 6 2 3 1025.0 - 0.0
23/09:30pm 7.2 6.4 6.5 95 0.3 CALM 0 0 0 0 1025.1 - 0.0
23/09:00pm 7.5 6.7 6.4 93 0.5 CALM 0 0 0 0 1025.1 1025.2 0.0
23/08:30pm 8.2 7.5 6.8 91 0.7 CALM 0 0 0 0 1024.7 - 0.0
23/08:00pm 8.6 7.8 6.6 87 0.9 CALM 0 0 0 0 1024.7 - 0.0
23/07:30pm 9.5 8.7 6.4 81 1.5 CALM 0 0 0 0 1024.5 - 0.0
23/07:00pm 10.4 8.4 6.4 76 1.9 SW 6 7 3 4 1024.2 - 0.0
23/06:30pm 10.7 9.1 6.5 75 2.0 SW 4 9 2 5 1024.2 - 0.0
23/06:00pm 11.5 10.7 6.6 72 2.4 CALM 0 0 0 0 1024.0 1024.0 0.0
23/05:30pm 12.9 11.7 6.5 65 3.1 W 2 6 1 3 1023.7 - 0.0
23/05:00pm 14.8 12.6 6.4 57 4.1 W 7 13 4 7 1023.7 - 0.0
23/04:30pm 15.8 13.2 6.3 53 4.7 W 9 17 5 9 1023.5 - 0.0
23/04:00pm 16.3 13.7 5.9 50 5.1 WSW 9 15 5 8 1023.1 - 0.0
23/03:30pm 16.9 14.1 7.0 52 5.0 W 11 17 6 9 1023.1 - 0.0
23/03:00pm 16.6 13.6 5.9 49 5.3 W 11 24 6 13 1023.1 1023.2 0.0
23/02:30pm 16.6 13.2 6.1 50 5.2 WSW 13 22 7 12 1023.0 - 0.0
23/02:00pm 16.4 12.6 6.0 50 5.2 WSW 15 22 8 12 1023.1 - 0.0
23/01:30pm 16.5 13.4 7.4 55 4.6 WSW 13 22 7 12 1023.3 - 0.0
23/01:00pm 16.0 13.1 8.0 59 4.1 WNW 13 22 7 12 1023.5 - 0.0
23/12:30pm 15.6 12.3 7.9 60 3.9 WSW 15 24 8 13 1023.9 - 0.0
23/12:00pm 15.1 12.1 7.6 61 3.8 W 13 24 7 13 1024.1 1024.1 0.0
23/11:30am 14.6 11.5 7.2 61 3.7 WSW 13 19 7 10 1024.2 - 0.0
23/11:00am 14.2 11.3 8.2 67 3.1 W 13 19 7 10 1024.6 - 0.0
23/10:30am 13.2 10.0 8.3 72 2.5 W 15 26 8 14 1024.6 - 0.0
23/10:00am 12.9 10.6 9.0 77 2.0 WNW 11 15 6 8 1024.7 - 0.0
23/09:30am 11.7 10.1 8.9 83 1.4 N 7 11 4 6 1024.5 - 0.0
23/09:00am 10.9 9.8 8.5 85 1.2 NNW 4 9 2 5 1024.1 1024.1 2.4
23/08:30am 10.3 8.4 8.9 91 0.7 WNW 9 13 5 7 1024.0 - 2.4
23/08:00am 9.6 8.2 9.0 96 0.3 W 6 9 3 5 1023.6 - 2.4
23/07:30am 8.9 6.9 8.6 98 0.1 W 9 17 5 9 1023.3 - 2.4
23/07:00am 8.5 6.7 8.1 97 0.2 W 7 9 4 5 1022.8 - 2.4
23/06:30am 8.7 6.5 7.9 95 0.4 W 9 17 5 9 1022.3 - 2.4
23/06:00am 9.1 6.2 8.0 93 0.5 W 13 22 7 12 1022.1 1022.1 2.4
23/05:30am 9.1 5.9 8.3 95 0.4 W 15 24 8 13 1021.8 - 2.4
23/05:00am 9.1 5.5 8.2 94 0.4 W 17 26 9 14 1021.4 - 2.4
23/04:30am 9.0 5.4 8.2 95 0.4 W 17 28 9 15 1021.2 - 2.4
23/04:00am 9.0 5.4 8.2 95 0.4 W 17 24 9 13 1021.1 - 2.4
23/03:30am 9.0 5.3 8.1 94 0.4 W 17 28 9 15 1020.9 - 2.4
23/03:00am 9.2 5.6 8.3 94 0.4 W 17 26 9 14 1020.8 1020.8 2.4
23/02:30am 9.6 5.1 8.4 92 0.6 W 22 39 12 21 1020.2 - 2.4
23/02:00am 9.8 5.6 8.2 90 0.8 W 20 32 11 17 1019.9 - 2.4
23/01:30am 9.9 5.8 8.0 88 0.9 W 19 30 10 16 1020.0 - 2.4
23/01:00am 10.1 6.0 8.0 87 1.0 W 19 32 10 17 1019.8 - 2.4
23/12:30am 10.2 5.8 7.6 84 1.3 W 20 35 11 19 1019.7 - 2.4
23/12:00am 9.9 6.2 7.8 87 1.0 W 17 26 9 14 1019.6 1019.6 2.4
 
Date/Time
CST
Temp
°C
App
Temp
°C
Dew
Point
Rel
Hum
%
Delta-T
°C
Wind Press
QNH
hPa
Press
MSL
hPa
Rain
since 9 am
mm
Dir
 
Spd
km/h
Gust
km/h
Spd
kts
Gust
kts
22/11:30pm 10.1 6.3 7.7 85 1.2 W 17 24 9 13 1019.3 - 2.4
22/11:00pm 10.6 7.2 7.7 82 1.4 WNW 15 24 8 13 1018.9 - 2.4

Other Formats:

Comma delimited format used in spreadsheet applications
http://www.bom.gov.au/fwo/IDS60801/IDS60801.95667.axf

JavaScript Object Notation format (JSON) in row-major order
http://www.bom.gov.au/fwo/IDS60801/IDS60801.95667.json